createdAt,value
2022-12-15T00:09:57.451Z,212.70
2022-12-15T00:20:22.335Z,190.00
2022-12-15T00:30:49.986Z,182.70
2022-12-15T00:40:59.867Z,151.60
2022-12-15T00:51:07.301Z,131.80
2022-12-15T01:01:31.918Z,116.50
2022-12-15T01:11:55.554Z,130.70
2022-12-15T01:22:02.747Z,95.70
2022-12-15T01:32:09.404Z,87.10
2022-12-15T01:42:15.360Z,90.20
2022-12-15T01:52:22.292Z,94.20
2022-12-15T02:02:35.641Z,80.80
2022-12-15T02:12:44.949Z,64.80
2022-12-15T02:22:55.818Z,93.60
2022-12-15T02:33:02.858Z,90.50
2022-12-15T02:43:12.026Z,91.40
2022-12-15T02:53:21.019Z,96.20
2022-12-15T03:03:31.348Z,88.10
2022-12-15T03:23:44.928Z,87.70
2022-12-15T03:33:52.103Z,68.30
2022-12-15T03:43:59.410Z,78.90
2022-12-15T03:54:07.979Z,79.60
2022-12-15T04:04:15.078Z,88.50
2022-12-15T04:14:22.407Z,85.80
2022-12-15T04:24:47.097Z,67.10
2022-12-15T04:35:11.646Z,64.50
2022-12-15T04:45:38.983Z,56.60
2022-12-15T04:56:03.785Z,68.00
2022-12-15T05:06:29.168Z,64.40
2022-12-15T05:16:53.834Z,64.60
2022-12-15T05:27:18.567Z,88.90
2022-12-15T05:37:25.678Z,73.80
2022-12-15T05:47:32.768Z,98.10
2022-12-15T05:57:39.820Z,69.70
2022-12-15T06:07:47.147Z,64.40
2022-12-15T06:17:56.044Z,59.60
2022-12-15T06:28:03.213Z,59.80
2022-12-15T06:38:10.468Z,76.80
2022-12-15T06:48:18.182Z,58.70
2022-12-15T06:58:25.361Z,71.30
2022-12-15T07:08:39.538Z,67.50
2022-12-15T07:18:48.446Z,58.10
2022-12-15T07:28:56.537Z,58.20
2022-12-15T07:39:04.963Z,82.80
2022-12-15T07:49:11.573Z,73.50
2022-12-15T07:59:18.729Z,61.70
2022-12-15T08:09:25.235Z,65.10
2022-12-15T08:19:32.351Z,103.70
2022-12-15T08:29:54.817Z,81.40
2022-12-15T08:40:02.316Z,55.20
2022-12-15T08:50:11.421Z,47.30
2022-12-15T09:00:17.984Z,57.80
2022-12-15T09:10:25.333Z,65.10
2022-12-15T09:20:32.588Z,67.40
2022-12-15T09:30:39.781Z,43.20
2022-12-15T09:40:49.967Z,30.10
2022-12-15T09:50:58.954Z,60.00
2022-12-15T10:01:09.958Z,54.20
2022-12-15T10:11:17.901Z,49.00
2022-12-15T10:21:27.772Z,65.70
2022-12-15T10:31:36.456Z,40.10
2022-12-15T10:41:44.738Z,52.90
2022-12-15T10:51:57.431Z,76.40
2022-12-15T11:02:27.239Z,63.80
2022-12-15T11:12:58.287Z,54.50
2022-12-15T11:23:09.923Z,47.00
2022-12-15T11:33:17.346Z,41.70
2022-12-15T11:43:43.781Z,53.20
2022-12-15T11:54:03.402Z,43.30
2022-12-15T12:04:13.611Z,46.30
2022-12-15T12:14:21.455Z,39.70
2022-12-15T12:24:31.706Z,56.10
2022-12-15T12:34:40.430Z,49.40
2022-12-15T12:55:24.448Z,47.50
2022-12-15T13:05:28.859Z,49.30
2022-12-15T13:25:41.155Z,48.20
2022-12-15T13:35:49.146Z,48.10
2022-12-15T13:46:01.113Z,38.40
2022-12-15T13:56:07.031Z,39.30
2022-12-15T14:06:15.501Z,62.10
2022-12-15T14:16:25.006Z,55.20
2022-12-15T14:26:32.380Z,64.90
2022-12-15T14:36:40.968Z,60.90
2022-12-15T14:46:47.147Z,49.60
2022-12-15T14:56:58.274Z,57.80
2022-12-15T15:03:05.150Z,53.90
2022-12-15T15:07:07.846Z,68.60
2022-12-15T15:17:16.841Z,54.80
2022-12-15T15:27:26.131Z,97.50
2022-12-15T15:37:35.107Z,72.00
2022-12-15T15:47:42.705Z,68.80
2022-12-15T15:57:48.956Z,140.10
2022-12-15T16:07:56.049Z,164.40
2022-12-15T16:18:03.242Z,142.10
2022-12-15T16:28:14.351Z,127.10
2022-12-15T16:38:19.830Z,149.80
2022-12-15T16:48:27.634Z,188.50
2022-12-15T16:58:37.324Z,161.20
2022-12-15T17:08:48.092Z,154.20
2022-12-15T17:18:55.795Z,217.80
2022-12-15T17:29:09.554Z,235.40
2022-12-15T17:39:19.845Z,227.20
2022-12-15T17:49:33.091Z,256.40
2022-12-15T17:59:43.160Z,241.20
2022-12-15T18:09:51.423Z,225.50
2022-12-15T18:19:58.868Z,211.70
2022-12-15T18:30:06.665Z,175.50
2022-12-15T18:40:15.987Z,165.60
2022-12-15T18:50:20.659Z,163.60
2022-12-15T19:00:26.030Z,155.30
2022-12-15T19:10:35.308Z,159.90
2022-12-15T19:31:08.156Z,217.30
2022-12-15T19:41:14.058Z,200.80
2022-12-15T19:51:24.305Z,187.10
2022-12-15T20:01:30.402Z,186.50
2022-12-15T20:11:39.020Z,162.20
2022-12-15T20:21:46.119Z,155.70
2022-12-15T20:31:54.425Z,148.90
2022-12-15T20:42:01.905Z,147.60
2022-12-15T20:52:07.054Z,127.50
2022-12-15T21:02:20.556Z,129.50
2022-12-15T21:12:29.497Z,105.10
2022-12-15T21:22:36.819Z,68.60
2022-12-15T21:32:42.391Z,60.80
2022-12-15T21:42:50.405Z,78.50
2022-12-15T21:52:58.023Z,74.80
2022-12-15T22:03:05.278Z,82.60
2022-12-15T22:13:13.422Z,77.10
2022-12-15T22:23:17.862Z,64.70
2022-12-15T22:33:27.623Z,95.80
2022-12-15T22:43:32.782Z,108.10
2022-12-15T22:53:40.027Z,76.80
2022-12-15T23:03:48.167Z,67.10
2022-12-15T23:13:55.513Z,101.90
2022-12-15T23:24:03.088Z,109.90
2022-12-15T23:34:10.483Z,75.50
2022-12-15T23:44:17.873Z,70.30
2022-12-15T23:54:24.977Z,108.10
